createdAt,value
2022-12-08T00:01:09.610Z,69.10
2022-12-08T00:03:37.418Z,68.40
2022-12-08T00:06:24.209Z,69.10
2022-12-08T00:09:09.920Z,69.00
2022-12-08T00:11:36.945Z,68.50
2022-12-08T00:14:03.764Z,68.40
2022-12-08T00:16:30.566Z,68.20
2022-12-08T00:18:57.356Z,67.60
2022-12-08T00:21:24.151Z,67.10
2022-12-08T00:23:50.975Z,67.50
2022-12-08T00:26:17.774Z,67.60
2022-12-08T00:28:44.606Z,67.30
2022-12-08T00:31:11.975Z,66.30
2022-12-08T00:33:38.723Z,66.10
2022-12-08T00:36:10.904Z,65.90
2022-12-08T00:38:38.339Z,65.70
2022-12-08T00:41:12.624Z,66.50
2022-12-08T00:43:39.848Z,67.10
2022-12-08T00:46:06.917Z,67.40
2022-12-08T00:48:34.174Z,66.90
2022-12-08T00:51:01.025Z,67.20
2022-12-08T00:53:27.796Z,67.50
2022-12-08T00:55:54.581Z,67.40
2022-12-08T00:58:21.319Z,67.00
2022-12-08T01:00:48.105Z,67.10
2022-12-08T01:03:15.344Z,67.30
2022-12-08T01:05:42.097Z,68.30
2022-12-08T01:08:09.210Z,69.00
2022-12-08T01:10:37.113Z,69.50
2022-12-08T01:13:04.685Z,69.30
2022-12-08T01:15:31.440Z,69.40
2022-12-08T01:17:58.211Z,69.30
2022-12-08T01:20:25.021Z,69.30
2022-12-08T01:22:51.777Z,68.90
2022-12-08T01:25:18.593Z,69.20
2022-12-08T01:27:45.378Z,68.90
2022-12-08T01:30:13.332Z,68.30
2022-12-08T01:32:40.146Z,67.80
2022-12-08T01:35:07.137Z,67.50
2022-12-08T01:37:33.916Z,68.10
2022-12-08T01:40:01.019Z,68.00
2022-12-08T01:42:28.100Z,67.50
2022-12-08T01:45:02.987Z,67.50
2022-12-08T01:47:40.770Z,67.10
2022-12-08T01:50:11.432Z,68.30
2022-12-08T01:52:42.771Z,68.00
2022-12-08T01:55:22.909Z,67.80
2022-12-08T01:57:53.374Z,67.00
2022-12-08T02:00:22.740Z,66.70
2022-12-08T02:02:58.524Z,66.10
2022-12-08T02:05:28.811Z,65.60
2022-12-08T02:07:57.222Z,66.80
2022-12-08T02:10:25.326Z,66.80
2022-12-08T02:12:54.729Z,67.20
2022-12-08T02:15:36.721Z,66.70
2022-12-08T02:18:10.289Z,67.30
2022-12-08T02:20:43.205Z,67.80
2022-12-08T02:23:18.553Z,68.00
2022-12-08T02:26:04.465Z,68.40
2022-12-08T02:28:37.172Z,68.20
2022-12-08T02:31:28.865Z,67.90
2022-12-08T02:34:23.393Z,67.60
2022-12-08T02:37:08.737Z,66.30
2022-12-08T02:39:54.337Z,66.80
2022-12-08T02:42:42.316Z,66.70
2022-12-08T02:45:47.723Z,66.40
2022-12-08T02:48:15.227Z,66.40
2022-12-08T02:50:42.356Z,66.30
2022-12-08T02:56:04.336Z,66.50
2022-12-08T02:59:08.320Z,66.60
2022-12-08T03:01:40.914Z,66.80
2022-12-08T03:04:39.023Z,66.70
2022-12-08T03:07:22.945Z,66.00
2022-12-08T03:10:05.273Z,65.20
2022-12-08T03:12:40.252Z,64.70
2022-12-08T03:15:11.499Z,64.20
2022-12-08T03:17:41.137Z,63.50
2022-12-08T03:20:13.047Z,63.70
2022-12-08T03:22:41.996Z,64.00
2022-12-08T03:25:12.714Z,63.70
2022-12-08T03:27:39.784Z,63.60
2022-12-08T03:30:07.611Z,63.90
2022-12-08T03:32:40.502Z,64.30
2022-12-08T03:35:12.329Z,63.50
2022-12-08T03:37:40.132Z,63.60
2022-12-08T03:40:10.189Z,64.80
2022-12-08T03:42:36.982Z,65.60
2022-12-08T03:45:04.768Z,66.50
2022-12-08T03:47:31.746Z,66.80
2022-12-08T03:49:58.536Z,67.20
2022-12-08T03:52:25.403Z,66.90
2022-12-08T03:54:52.142Z,67.40
2022-12-08T03:57:18.929Z,67.30
2022-12-08T03:59:45.620Z,68.30
2022-12-08T04:02:12.460Z,68.30
2022-12-08T04:04:39.268Z,68.50
2022-12-08T04:07:05.999Z,68.70
2022-12-08T04:09:32.712Z,68.80
2022-12-08T04:11:59.511Z,69.10
2022-12-08T04:14:26.182Z,68.90
2022-12-08T04:16:52.965Z,69.00
2022-12-08T04:19:19.851Z,69.00
2022-12-08T04:21:46.653Z,68.00
2022-12-08T04:24:13.372Z,68.80
2022-12-08T04:26:40.142Z,69.90
2022-12-08T04:29:06.945Z,70.10
2022-12-08T04:31:33.768Z,70.00
2022-12-08T04:34:00.646Z,70.10
2022-12-08T04:36:27.514Z,69.80
2022-12-08T04:38:54.369Z,70.40
2022-12-08T04:41:21.363Z,70.80
2022-12-08T04:43:48.086Z,71.00
2022-12-08T04:46:15.045Z,71.20
2022-12-08T04:48:42.023Z,71.00
2022-12-08T04:51:16.863Z,71.30
2022-12-08T04:53:46.632Z,72.10
2022-12-08T04:56:18.601Z,72.40
2022-12-08T04:58:46.162Z,72.60
2022-12-08T05:01:13.450Z,72.40
2022-12-08T05:03:40.295Z,72.50
2022-12-08T05:06:07.362Z,72.10
2022-12-08T05:08:34.215Z,71.70
2022-12-08T05:11:09.739Z,71.90
2022-12-08T05:13:36.564Z,72.80
2022-12-08T05:16:04.444Z,73.10
2022-12-08T05:18:31.423Z,73.20
2022-12-08T05:20:58.330Z,73.00
2022-12-08T05:23:25.206Z,73.00
2022-12-08T05:25:51.933Z,72.90
2022-12-08T05:28:40.889Z,72.70
2022-12-08T05:31:05.666Z,73.50
2022-12-08T05:33:32.453Z,72.80
2022-12-08T05:35:59.389Z,72.70
2022-12-08T05:38:26.111Z,72.50
2022-12-08T05:40:52.894Z,72.50
2022-12-08T05:43:19.651Z,72.70
2022-12-08T05:45:46.468Z,72.50
2022-12-08T05:48:13.373Z,72.80
2022-12-08T05:50:40.423Z,72.70
2022-12-08T05:53:07.287Z,73.10
2022-12-08T05:55:34.060Z,72.50
2022-12-08T05:58:06.212Z,72.40
2022-12-08T06:00:35.010Z,72.50
2022-12-08T06:03:01.941Z,73.20
2022-12-08T06:05:28.708Z,73.20
2022-12-08T06:07:55.497Z,73.60
2022-12-08T06:10:22.285Z,73.30
2022-12-08T06:12:49.086Z,73.20
2022-12-08T06:15:15.865Z,74.00
2022-12-08T06:17:42.627Z,74.30
2022-12-08T06:20:09.859Z,74.40
2022-12-08T06:22:37.629Z,74.40
2022-12-08T06:25:09.541Z,74.20
2022-12-08T06:27:36.912Z,74.50
2022-12-08T06:30:04.777Z,74.40
2022-12-08T06:32:31.731Z,74.70
2022-12-08T06:34:58.528Z,75.60
2022-12-08T06:37:25.342Z,77.00
2022-12-08T06:39:52.118Z,77.30
2022-12-08T06:42:37.457Z,77.50
2022-12-08T06:45:04.533Z,77.00
2022-12-08T06:47:31.304Z,77.10
2022-12-08T06:49:58.105Z,77.30
2022-12-08T06:52:25.153Z,77.60
2022-12-08T06:54:51.970Z,77.70
2022-12-08T06:57:18.779Z,77.80
2022-12-08T06:59:45.646Z,77.50
2022-12-08T07:02:12.599Z,77.30
2022-12-08T07:04:39.348Z,77.80
2022-12-08T07:07:06.151Z,77.90
2022-12-08T07:09:33.003Z,78.00
2022-12-08T07:11:59.947Z,77.80
2022-12-08T07:14:26.931Z,78.10
2022-12-08T07:16:53.920Z,77.20
2022-12-08T07:19:20.964Z,76.40
2022-12-08T07:21:48.003Z,75.70
2022-12-08T07:24:14.827Z,75.90
2022-12-08T07:26:41.908Z,76.50
2022-12-08T07:29:10.510Z,76.30
2022-12-08T07:31:37.404Z,76.80
2022-12-08T07:34:04.430Z,76.90
2022-12-08T07:36:32.547Z,76.60
2022-12-08T07:38:59.680Z,76.70
2022-12-08T07:41:26.992Z,76.90
2022-12-08T07:43:54.185Z,76.00
2022-12-08T07:46:22.791Z,75.20
2022-12-08T07:48:49.753Z,73.60
2022-12-08T07:51:17.551Z,74.00
2022-12-08T07:53:51.687Z,75.30
2022-12-08T07:56:21.321Z,76.10
2022-12-08T07:58:48.195Z,75.70
2022-12-08T08:01:29.535Z,75.70
2022-12-08T08:03:58.112Z,75.90
2022-12-08T08:06:24.870Z,74.40
2022-12-08T08:08:51.549Z,72.70
2022-12-08T08:11:21.296Z,72.50
2022-12-08T08:13:49.319Z,72.20
2022-12-08T08:16:16.348Z,72.10
2022-12-08T08:18:43.617Z,71.30
2022-12-08T08:23:57.315Z,71.00
2022-12-08T08:26:24.109Z,70.50
2022-12-08T08:28:50.908Z,70.80
2022-12-08T08:31:17.727Z,70.30
2022-12-08T08:33:44.506Z,69.60
2022-12-08T08:36:11.584Z,70.10
2022-12-08T08:38:42.882Z,69.20
2022-12-08T08:41:10.786Z,68.90
2022-12-08T08:43:38.926Z,68.90
2022-12-08T08:46:07.034Z,68.80
2022-12-08T08:48:34.474Z,67.70
2022-12-08T08:51:09.142Z,66.70
2022-12-08T08:53:36.318Z,66.40
2022-12-08T08:56:05.214Z,65.60
2022-12-08T08:58:32.010Z,64.80
2022-12-08T09:00:58.999Z,64.20
2022-12-08T09:03:25.812Z,65.10
2022-12-08T09:05:52.729Z,66.50
2022-12-08T09:08:19.720Z,68.10
2022-12-08T09:10:46.557Z,68.50
2022-12-08T09:13:13.530Z,68.30
2022-12-08T09:15:40.504Z,67.90
2022-12-08T09:18:07.576Z,67.20
2022-12-08T09:20:35.685Z,67.00
2022-12-08T09:23:02.445Z,67.20
2022-12-08T09:25:29.523Z,67.20
2022-12-08T09:27:56.360Z,66.40
2022-12-08T09:30:23.338Z,66.20
2022-12-08T09:32:53.268Z,65.90
2022-12-08T09:35:20.417Z,66.70
2022-12-08T09:37:47.299Z,67.10
2022-12-08T09:40:18.769Z,66.80
2022-12-08T09:43:24.365Z,66.70
2022-12-08T09:45:52.278Z,66.80
2022-12-08T09:48:25.472Z,65.40
2022-12-08T09:50:55.917Z,65.80
2022-12-08T09:53:33.701Z,66.80
2022-12-08T09:56:16.251Z,66.90
2022-12-08T09:59:20.329Z,66.70
2022-12-08T10:01:47.176Z,65.90
2022-12-08T10:04:32.457Z,65.70
2022-12-08T10:07:19.775Z,66.10
2022-12-08T10:09:47.600Z,66.00
2022-12-08T10:12:41.659Z,65.00
2022-12-08T10:15:45.644Z,64.90
2022-12-08T10:18:27.193Z,65.10
2022-12-08T10:20:58.001Z,65.30
2022-12-08T10:23:35.034Z,65.10
2022-12-08T10:26:06.398Z,64.50
2022-12-08T10:28:35.966Z,63.60
2022-12-08T10:31:04.901Z,63.70
2022-12-08T10:33:33.397Z,63.90
2022-12-08T10:36:04.701Z,63.30
2022-12-08T10:38:39.393Z,62.70
2022-12-08T10:41:12.149Z,63.00
2022-12-08T10:43:44.424Z,62.20
2022-12-08T10:46:15.866Z,61.20
2022-12-08T10:48:48.553Z,61.70
2022-12-08T10:51:28.638Z,61.50
2022-12-08T10:53:55.647Z,60.90
2022-12-08T10:56:29.586Z,59.80
2022-12-08T10:59:11.403Z,59.70
2022-12-08T11:01:40.258Z,59.50
2022-12-08T11:04:21.527Z,59.90
2022-12-08T11:06:50.514Z,59.30
2022-12-08T11:09:20.475Z,58.50
2022-12-08T11:11:58.743Z,57.80
2022-12-08T11:14:31.459Z,57.50
2022-12-08T11:17:08.802Z,57.10
2022-12-08T11:19:40.876Z,56.40
2022-12-08T11:22:29.285Z,55.80
2022-12-08T11:25:11.364Z,55.30
2022-12-08T11:27:43.556Z,56.60
2022-12-08T11:30:27.806Z,56.90
2022-12-08T11:33:03.561Z,56.80
2022-12-08T11:35:32.968Z,56.90
2022-12-08T11:38:21.675Z,55.90
2022-12-08T11:40:55.890Z,54.90
2022-12-08T11:43:44.202Z,54.70
2022-12-08T11:46:34.202Z,53.90
2022-12-08T11:49:09.626Z,53.50
2022-12-08T11:52:01.845Z,53.20
2022-12-08T11:54:35.376Z,53.20
2022-12-08T11:57:05.895Z,52.60
2022-12-08T11:59:44.454Z,52.20
2022-12-08T12:02:24.142Z,51.80
2022-12-08T12:04:57.656Z,51.10
2022-12-08T12:08:02.685Z,51.80
2022-12-08T12:10:35.449Z,51.70
2022-12-08T12:13:17.257Z,51.00
2022-12-08T12:16:21.167Z,50.50
2022-12-08T12:18:53.533Z,51.20
2022-12-08T12:21:45.478Z,51.10
2022-12-08T12:24:27.512Z,51.50
2022-12-08T12:26:59.965Z,52.50
2022-12-08T12:29:31.315Z,52.80
2022-12-08T12:32:04.520Z,52.10
2022-12-08T12:34:52.246Z,52.20
2022-12-08T12:37:22.706Z,52.30
2022-12-08T12:39:52.248Z,53.40
2022-12-08T12:42:53.021Z,53.40
2022-12-08T12:45:22.515Z,53.20
2022-12-08T12:47:54.324Z,52.90
2022-12-08T12:50:34.836Z,53.50
2022-12-08T12:53:09.198Z,54.00
2022-12-08T12:56:04.132Z,54.40
2022-12-08T12:58:30.833Z,54.20
2022-12-08T13:01:13.183Z,54.10
2022-12-08T13:03:50.024Z,54.80
2022-12-08T13:06:38.093Z,55.50
2022-12-08T13:09:07.226Z,55.60
2022-12-08T13:11:49.968Z,56.30
2022-12-08T13:14:47.593Z,56.00
2022-12-08T13:17:26.145Z,55.90
2022-12-08T13:20:01.190Z,55.80
2022-12-08T13:23:09.925Z,55.40
2022-12-08T13:25:39.648Z,54.70
2022-12-08T13:28:24.172Z,55.70
2022-12-08T13:30:55.057Z,56.30
2022-12-08T13:33:38.382Z,56.90
2022-12-08T13:36:38.199Z,57.10
2022-12-08T13:39:06.065Z,58.20
2022-12-08T13:41:38.311Z,58.70
2022-12-08T13:59:06.238Z,59.40
2022-12-08T14:01:43.761Z,59.60
2022-12-08T14:07:04.441Z,58.60
2022-12-08T14:09:36.817Z,59.00
2022-12-08T14:12:08.264Z,58.80
2022-12-08T14:15:01.655Z,58.30
2022-12-08T14:17:27.650Z,57.70
2022-12-08T14:20:19.630Z,57.80
2022-12-08T14:22:46.868Z,57.40
2022-12-08T14:25:15.901Z,57.80
2022-12-08T14:27:43.876Z,57.30
2022-12-08T14:30:14.156Z,57.30
2022-12-08T14:32:47.874Z,57.10
2022-12-08T14:35:31.064Z,57.00
2022-12-08T14:38:02.813Z,56.90
2022-12-08T14:40:41.408Z,56.80
2022-12-08T14:43:08.137Z,56.20
2022-12-08T14:46:01.573Z,55.60
2022-12-08T14:48:31.433Z,56.30
2022-12-08T14:51:04.179Z,56.50
2022-12-08T14:53:39.545Z,56.80
2022-12-08T14:56:21.751Z,56.80
2022-12-08T14:59:01.463Z,57.50
2022-12-08T15:01:28.362Z,58.30
2022-12-08T15:04:12.617Z,59.30
2022-12-08T15:07:11.449Z,59.30
2022-12-08T15:09:43.563Z,59.30
2022-12-08T15:12:13.100Z,59.20
2022-12-08T15:14:57.385Z,59.70
2022-12-08T15:17:48.995Z,59.90
2022-12-08T15:20:40.831Z,60.10
2022-12-08T15:23:21.333Z,60.20
2022-12-08T15:25:48.753Z,61.00
2022-12-08T15:28:19.360Z,61.10
2022-12-08T15:30:46.891Z,61.10
2022-12-08T15:33:13.865Z,61.40
2022-12-08T15:35:41.198Z,62.20
2022-12-08T15:38:17.782Z,62.10
2022-12-08T15:40:44.668Z,62.50
2022-12-08T15:43:11.687Z,62.70
2022-12-08T15:45:41.324Z,62.80
2022-12-08T15:48:19.265Z,63.10
2022-12-08T15:50:47.553Z,62.60
2022-12-08T15:53:14.973Z,62.50
2022-12-08T15:55:53.204Z,62.50
2022-12-08T15:58:52.997Z,62.10
2022-12-08T16:01:17.139Z,63.50
2022-12-08T16:04:27.435Z,62.90
2022-12-08T16:07:12.933Z,62.10
2022-12-08T16:09:27.353Z,61.20
2022-12-08T16:12:12.834Z,61.60
2022-12-08T16:17:28.757Z,61.50
2022-12-08T16:19:55.937Z,61.30
2022-12-08T16:22:52.870Z,61.50
2022-12-08T16:25:19.766Z,61.20
2022-12-08T16:28:05.210Z,60.90
2022-12-08T16:30:35.921Z,60.90
2022-12-08T16:33:02.790Z,62.10
2022-12-08T16:35:29.905Z,62.20
2022-12-08T16:37:57.204Z,62.00
2022-12-08T16:40:24.152Z,61.40
2022-12-08T16:42:50.910Z,61.20
2022-12-08T16:45:20.320Z,61.70
2022-12-08T16:47:48.261Z,61.80
2022-12-08T16:50:27.583Z,62.70
2022-12-08T16:53:07.658Z,63.40
2022-12-08T16:55:35.235Z,63.50
2022-12-08T16:58:03.620Z,62.80
2022-12-08T17:00:31.479Z,62.80
2022-12-08T17:02:59.016Z,62.80
2022-12-08T17:05:26.667Z,63.20
2022-12-08T17:07:54.463Z,63.30
2022-12-08T17:10:26.793Z,63.40
2022-12-08T17:12:53.748Z,63.30
2022-12-08T17:15:24.320Z,63.20
2022-12-08T17:17:51.711Z,63.40
2022-12-08T17:20:21.693Z,63.00
2022-12-08T17:22:48.644Z,62.90
2022-12-08T17:25:16.008Z,63.20
2022-12-08T17:27:43.185Z,62.80
2022-12-08T17:30:11.854Z,62.80
2022-12-08T17:32:39.156Z,62.90
2022-12-08T17:35:07.312Z,62.90
2022-12-08T17:37:34.777Z,62.90
2022-12-08T17:40:01.796Z,62.60
2022-12-08T17:42:28.675Z,62.30
2022-12-08T17:44:55.656Z,63.00
2022-12-08T17:47:22.493Z,62.90
2022-12-08T17:49:49.309Z,63.20
2022-12-08T17:52:16.070Z,63.20
2022-12-08T17:54:42.771Z,62.80
2022-12-08T17:57:09.473Z,63.00
2022-12-08T17:59:36.267Z,63.00
2022-12-08T18:02:04.457Z,63.10
2022-12-08T18:04:31.438Z,63.50
2022-12-08T18:07:00.239Z,63.40
2022-12-08T18:09:27.197Z,64.30
2022-12-08T18:11:54.224Z,64.20
2022-12-08T18:14:21.171Z,65.00
2022-12-08T18:16:48.143Z,65.20
2022-12-08T18:19:15.548Z,65.80
2022-12-08T18:21:42.756Z,65.70
2022-12-08T18:24:18.237Z,65.30
2022-12-08T18:26:45.431Z,65.90
2022-12-08T18:29:12.206Z,65.70
2022-12-08T18:31:38.976Z,65.70
2022-12-08T18:34:05.731Z,65.90
2022-12-08T18:36:32.509Z,66.00
2022-12-08T18:38:59.423Z,66.20
2022-12-08T18:41:26.600Z,66.30
2022-12-08T18:43:54.720Z,66.40
2022-12-08T18:46:22.206Z,66.20
2022-12-08T18:48:50.886Z,66.10
2022-12-08T18:51:23.338Z,65.80
2022-12-08T18:53:50.901Z,65.80
2022-12-08T18:56:24.557Z,66.50
2022-12-08T18:58:51.326Z,65.60
2022-12-08T19:01:18.601Z,65.40
2022-12-08T19:04:04.700Z,65.10
2022-12-08T19:06:32.929Z,64.90
2022-12-08T19:08:59.732Z,64.70
2022-12-08T19:11:29.006Z,64.60
2022-12-08T19:13:56.049Z,66.10
2022-12-08T19:16:23.678Z,66.30
2022-12-08T19:18:50.628Z,66.40
2022-12-08T19:21:17.730Z,66.10
2022-12-08T19:23:44.487Z,66.30
2022-12-08T19:26:12.033Z,66.90
2022-12-08T19:28:41.136Z,67.90
2022-12-08T19:31:09.421Z,67.10
2022-12-08T19:33:37.704Z,67.30
2022-12-08T19:36:10.065Z,67.00
2022-12-08T19:38:56.844Z,66.70
2022-12-08T19:41:43.218Z,66.60
2022-12-08T19:44:34.130Z,66.80
2022-12-08T19:47:01.935Z,66.80
2022-12-08T19:49:29.087Z,66.50
2022-12-08T19:51:56.186Z,67.20
2022-12-08T19:54:23.314Z,68.10
2022-12-08T19:56:52.480Z,68.70
2022-12-08T19:59:19.502Z,68.70
2022-12-08T20:01:48.552Z,68.80
2022-12-08T20:04:16.326Z,68.50
2022-12-08T20:06:45.870Z,68.90
2022-12-08T20:09:14.483Z,68.80
2022-12-08T20:11:41.688Z,69.20
2022-12-08T20:14:08.783Z,68.50
2022-12-08T20:16:36.622Z,68.60
2022-12-08T20:19:03.661Z,68.90
2022-12-08T20:21:30.491Z,69.60
2022-12-08T20:23:57.988Z,69.20
2022-12-08T20:26:25.028Z,69.40
2022-12-08T20:28:51.855Z,69.00
2022-12-08T20:31:29.702Z,69.10
2022-12-08T20:33:56.973Z,69.70
2022-12-08T20:36:23.897Z,69.70
2022-12-08T20:38:52.350Z,70.10
2022-12-08T20:41:20.536Z,70.00
2022-12-08T20:43:48.089Z,70.20
2022-12-08T20:46:17.233Z,70.20
2022-12-08T20:48:44.692Z,71.00
2022-12-08T20:51:19.565Z,72.10
2022-12-08T20:53:47.559Z,73.00
2022-12-08T20:56:18.287Z,73.90
2022-12-08T20:58:45.766Z,74.30
2022-12-08T21:01:14.418Z,74.50
2022-12-08T21:03:43.110Z,74.50
2022-12-08T21:06:11.236Z,74.80
2022-12-08T21:08:38.890Z,75.00
2022-12-08T21:11:06.867Z,75.40
2022-12-08T21:13:34.016Z,75.10
2022-12-08T21:16:01.135Z,74.70
2022-12-08T21:18:28.551Z,74.50
2022-12-08T21:21:08.097Z,74.00
2022-12-08T21:23:35.957Z,73.20
2022-12-08T21:26:03.217Z,73.50
2022-12-08T21:28:30.149Z,73.70
2022-12-08T21:30:57.022Z,73.90
2022-12-08T21:33:24.221Z,73.80
2022-12-08T21:35:51.095Z,73.90
2022-12-08T21:38:18.132Z,73.70
2022-12-08T21:40:44.911Z,73.30
2022-12-08T21:43:13.440Z,72.60
2022-12-08T21:45:40.598Z,72.80
2022-12-08T21:48:11.735Z,73.70
2022-12-08T21:50:39.047Z,74.20
2022-12-08T21:53:06.194Z,74.80
2022-12-08T21:55:33.036Z,74.90
2022-12-08T21:58:00.943Z,74.30
2022-12-08T22:00:28.128Z,74.00
2022-12-08T22:02:55.421Z,74.30
2022-12-08T22:05:22.737Z,74.70
2022-12-08T22:07:49.948Z,74.40
2022-12-08T22:10:17.084Z,74.10
2022-12-08T22:12:44.082Z,73.60
2022-12-08T22:15:11.501Z,73.50
2022-12-08T22:17:44.001Z,72.80
2022-12-08T22:20:13.738Z,72.10
2022-12-08T22:22:44.344Z,71.90
2022-12-08T22:25:12.135Z,72.20
2022-12-08T22:27:41.463Z,72.30
2022-12-08T22:30:09.899Z,72.60
2022-12-08T22:32:37.713Z,73.40
2022-12-08T22:35:05.129Z,74.00
2022-12-08T22:37:32.302Z,74.50
2022-12-08T22:39:59.320Z,75.50
2022-12-08T22:42:26.689Z,74.40
2022-12-08T22:44:53.775Z,74.80
2022-12-08T22:47:20.887Z,75.70
2022-12-08T22:49:47.994Z,76.00
2022-12-08T22:52:14.913Z,76.40
2022-12-08T22:54:42.010Z,76.50
2022-12-08T22:57:09.136Z,76.20
2022-12-08T22:59:36.147Z,76.30
2022-12-08T23:02:03.143Z,76.70
2022-12-08T23:04:30.464Z,76.80
2022-12-08T23:06:57.336Z,76.40
2022-12-08T23:09:24.074Z,75.90
2022-12-08T23:11:51.527Z,75.80
2022-12-08T23:14:18.301Z,75.70
2022-12-08T23:16:45.417Z,75.70
2022-12-08T23:19:12.475Z,75.80
2022-12-08T23:21:39.803Z,75.90
2022-12-08T23:24:06.713Z,75.20
2022-12-08T23:26:35.322Z,75.20
2022-12-08T23:29:02.459Z,75.40
2022-12-08T23:31:29.779Z,75.20
2022-12-08T23:33:56.924Z,74.90
2022-12-08T23:36:27.346Z,75.20
2022-12-08T23:38:55.371Z,75.40
2022-12-08T23:41:22.233Z,75.40
2022-12-08T23:43:52.388Z,76.00
2022-12-08T23:46:21.721Z,76.70
2022-12-08T23:48:49.255Z,77.20
2022-12-08T23:51:16.943Z,77.30
2022-12-08T23:53:44.475Z,78.10
2022-12-08T23:56:15.587Z,78.60
2022-12-08T23:58:43.119Z,79.00
